sensor_id;sensor_type;location;lat;lon;timestamp;P1;durP1;ratioP1;P2;durP2;ratioP2
15240;SDS011;7723;52.170;9.978;2023-04-03T00:00:34;4.33;;;1.30;;
15240;SDS011;7723;52.170;9.978;2023-04-03T00:03:01;2.97;;;1.37;;
15240;SDS011;7723;52.170;9.978;2023-04-03T00:05:28;5.73;;;1.30;;
15240;SDS011;7723;52.170;9.978;2023-04-03T00:07:55;4.00;;;1.20;;
15240;SDS011;7723;52.170;9.978;2023-04-03T00:10:22;3.53;;;1.23;;
15240;SDS011;7723;52.170;9.978;2023-04-03T00:12:51;1.67;;;0.87;;
15240;SDS011;7723;52.170;9.978;2023-04-03T00:15:18;6.23;;;1.13;;
15240;SDS011;7723;52.170;9.978;2023-04-03T00:17:45;4.83;;;1.10;;
15240;SDS011;7723;52.170;9.978;2023-04-03T00:20:12;3.97;;;1.17;;
15240;SDS011;7723;52.170;9.978;2023-04-03T00:22:39;6.97;;;1.60;;
15240;SDS011;7723;52.170;9.978;2023-04-03T00:25:07;1.57;;;0.90;;
15240;SDS011;7723;52.170;9.978;2023-04-03T00:27:35;4.07;;;1.30;;
15240;SDS011;7723;52.170;9.978;2023-04-03T00:30:05;1.80;;;1.07;;
15240;SDS011;7723;52.170;9.978;2023-04-03T00:32:34;2.77;;;1.30;;
15240;SDS011;7723;52.170;9.978;2023-04-03T00:35:01;2.90;;;0.90;;
15240;SDS011;7723;52.170;9.978;2023-04-03T00:37:28;4.03;;;1.97;;
15240;SDS011;7723;52.170;9.978;2023-04-03T00:39:55;4.53;;;1.87;;
15240;SDS011;7723;52.170;9.978;2023-04-03T00:42:22;3.67;;;1.10;;
15240;SDS011;7723;52.170;9.978;2023-04-03T00:47:52;3.40;;;1.20;;
15240;SDS011;7723;52.170;9.978;2023-04-03T00:50:20;3.43;;;1.83;;
15240;SDS011;7723;52.170;9.978;2023-04-03T00:52:48;3.67;;;1.13;;
15240;SDS011;7723;52.170;9.978;2023-04-03T00:55:15;3.57;;;1.30;;
15240;SDS011;7723;52.170;9.978;2023-04-03T00:57:42;2.70;;;0.90;;
15240;SDS011;7723;52.170;9.978;2023-04-03T01:00:12;1.73;;;0.90;;
15240;SDS011;7723;52.170;9.978;2023-04-03T01:02:45;3.43;;;1.00;;
15240;SDS011;7723;52.170;9.978;2023-04-03T01:05:15;3.30;;;1.00;;
15240;SDS011;7723;52.170;9.978;2023-04-03T01:07:43;2.50;;;1.00;;
15240;SDS011;7723;52.170;9.978;2023-04-03T01:10:12;7.67;;;1.10;;
15240;SDS011;7723;52.170;9.978;2023-04-03T01:12:42;2.30;;;1.00;;
15240;SDS011;7723;52.170;9.978;2023-04-03T01:15:11;1.67;;;0.97;;
15240;SDS011;7723;52.170;9.978;2023-04-03T01:17:41;4.60;;;1.33;;
15240;SDS011;7723;52.170;9.978;2023-04-03T01:20:19;2.83;;;1.30;;
15240;SDS011;7723;52.170;9.978;2023-04-03T01:23:12;4.37;;;1.07;;
15240;SDS011;7723;52.170;9.978;2023-04-03T01:25:48;1.83;;;1.10;;
15240;SDS011;7723;52.170;9.978;2023-04-03T01:28:17;3.47;;;1.10;;
15240;SDS011;7723;52.170;9.978;2023-04-03T01:30:46;1.80;;;0.93;;
15240;SDS011;7723;52.170;9.978;2023-04-03T01:33:18;3.30;;;1.10;;
15240;SDS011;7723;52.170;9.978;2023-04-03T01:35:46;3.50;;;1.20;;
15240;SDS011;7723;52.170;9.978;2023-04-03T01:38:13;4.10;;;1.13;;
15240;SDS011;7723;52.170;9.978;2023-04-03T01:40:41;1.70;;;0.90;;
15240;SDS011;7723;52.170;9.978;2023-04-03T01:43:08;4.43;;;1.17;;
15240;SDS011;7723;52.170;9.978;2023-04-03T01:45:35;1.37;;;1.10;;
15240;SDS011;7723;52.170;9.978;2023-04-03T01:48:02;2.13;;;0.83;;
15240;SDS011;7723;52.170;9.978;2023-04-03T01:50:31;3.63;;;1.00;;
15240;SDS011;7723;52.170;9.978;2023-04-03T01:52:58;3.13;;;1.23;;
15240;SDS011;7723;52.170;9.978;2023-04-03T01:55:25;1.87;;;0.90;;
15240;SDS011;7723;52.170;9.978;2023-04-03T01:57:53;4.97;;;1.93;;
15240;SDS011;7723;52.170;9.978;2023-04-03T02:00:20;2.10;;;1.03;;
15240;SDS011;7723;52.170;9.978;2023-04-03T02:02:47;5.10;;;1.07;;
15240;SDS011;7723;52.170;9.978;2023-04-03T02:05:14;2.83;;;1.00;;
15240;SDS011;7723;52.170;9.978;2023-04-03T02:07:43;3.03;;;1.10;;
15240;SDS011;7723;52.170;9.978;2023-04-03T02:10:10;3.20;;;1.17;;
15240;SDS011;7723;52.170;9.978;2023-04-03T02:12:38;6.37;;;1.37;;
15240;SDS011;7723;52.170;9.978;2023-04-03T02:15:06;3.90;;;1.67;;
15240;SDS011;7723;52.170;9.978;2023-04-03T02:17:34;2.70;;;1.20;;
15240;SDS011;7723;52.170;9.978;2023-04-03T02:20:02;7.07;;;1.40;;
15240;SDS011;7723;52.170;9.978;2023-04-03T02:22:30;6.00;;;1.17;;
15240;SDS011;7723;52.170;9.978;2023-04-03T02:24:58;5.97;;;1.27;;
15240;SDS011;7723;52.170;9.978;2023-04-03T02:27:25;3.87;;;1.23;;
15240;SDS011;7723;52.170;9.978;2023-04-03T02:29:53;8.20;;;1.50;;
15240;SDS011;7723;52.170;9.978;2023-04-03T02:32:20;5.03;;;1.23;;
15240;SDS011;7723;52.170;9.978;2023-04-03T02:34:47;2.07;;;1.17;;
15240;SDS011;7723;52.170;9.978;2023-04-03T02:37:14;4.47;;;1.57;;
15240;SDS011;7723;52.170;9.978;2023-04-03T02:39:41;2.67;;;1.20;;
15240;SDS011;7723;52.170;9.978;2023-04-03T02:42:10;4.43;;;1.43;;
15240;SDS011;7723;52.170;9.978;2023-04-03T02:44:37;3.97;;;1.33;;
15240;SDS011;7723;52.170;9.978;2023-04-03T02:47:04;3.53;;;1.23;;
15240;SDS011;7723;52.170;9.978;2023-04-03T02:49:31;5.00;;;1.73;;
15240;SDS011;7723;52.170;9.978;2023-04-03T02:51:59;2.90;;;1.20;;
15240;SDS011;7723;52.170;9.978;2023-04-03T02:54:26;3.57;;;1.47;;
15240;SDS011;7723;52.170;9.978;2023-04-03T02:56:55;7.97;;;1.60;;
15240;SDS011;7723;52.170;9.978;2023-04-03T02:59:24;4.80;;;1.40;;
15240;SDS011;7723;52.170;9.978;2023-04-03T03:01:51;2.20;;;1.17;;
15240;SDS011;7723;52.170;9.978;2023-04-03T03:04:18;3.43;;;1.30;;
15240;SDS011;7723;52.170;9.978;2023-04-03T03:06:46;4.50;;;1.30;;
15240;SDS011;7723;52.170;9.978;2023-04-03T03:09:13;2.57;;;1.30;;
15240;SDS011;7723;52.170;9.978;2023-04-03T03:11:40;3.83;;;1.30;;
15240;SDS011;7723;52.170;9.978;2023-04-03T03:14:07;4.40;;;1.93;;
15240;SDS011;7723;52.170;9.978;2023-04-03T03:16:36;2.67;;;1.20;;
15240;SDS011;7723;52.170;9.978;2023-04-03T03:19:03;3.13;;;1.20;;
15240;SDS011;7723;52.170;9.978;2023-04-03T03:21:30;4.80;;;1.30;;
15240;SDS011;7723;52.170;9.978;2023-04-03T03:23:57;4.47;;;1.53;;
15240;SDS011;7723;52.170;9.978;2023-04-03T03:26:24;2.80;;;0.93;;
15240;SDS011;7723;52.170;9.978;2023-04-03T03:28:51;5.07;;;1.53;;
15240;SDS011;7723;52.170;9.978;2023-04-03T03:31:18;3.37;;;1.50;;
15240;SDS011;7723;52.170;9.978;2023-04-03T03:33:47;6.23;;;1.57;;
15240;SDS011;7723;52.170;9.978;2023-04-03T03:36:14;4.10;;;1.60;;
15240;SDS011;7723;52.170;9.978;2023-04-03T03:38:41;10.30;;;1.40;;
15240;SDS011;7723;52.170;9.978;2023-04-03T03:41:08;3.10;;;1.20;;
15240;SDS011;7723;52.170;9.978;2023-04-03T03:43:35;2.43;;;1.23;;
15240;SDS011;7723;52.170;9.978;2023-04-03T03:46:02;3.40;;;1.00;;
15240;SDS011;7723;52.170;9.978;2023-04-03T03:48:29;4.30;;;1.10;;
15240;SDS011;7723;52.170;9.978;2023-04-03T03:50:57;3.27;;;1.10;;
15240;SDS011;7723;52.170;9.978;2023-04-03T03:53:25;3.50;;;1.50;;
15240;SDS011;7723;52.170;9.978;2023-04-03T03:55:52;4.33;;;1.47;;
15240;SDS011;7723;52.170;9.978;2023-04-03T03:58:19;2.23;;;1.13;;
15240;SDS011;7723;52.170;9.978;2023-04-03T04:00:46;4.63;;;1.50;;
15240;SDS011;7723;52.170;9.978;2023-04-03T04:03:13;5.13;;;1.40;;
15240;SDS011;7723;52.170;9.978;2023-04-03T04:05:40;6.20;;;1.50;;
15240;SDS011;7723;52.170;9.978;2023-04-03T04:08:09;4.43;;;0.93;;
15240;SDS011;7723;52.170;9.978;2023-04-03T04:10:36;4.10;;;1.80;;
15240;SDS011;7723;52.170;9.978;2023-04-03T04:13:04;3.97;;;1.30;;
15240;SDS011;7723;52.170;9.978;2023-04-03T04:15:31;3.30;;;1.43;;
15240;SDS011;7723;52.170;9.978;2023-04-03T04:17:58;3.73;;;1.60;;
15240;SDS011;7723;52.170;9.978;2023-04-03T04:20:25;4.83;;;0.97;;
15240;SDS011;7723;52.170;9.978;2023-04-03T04:22:52;6.33;;;1.43;;
15240;SDS011;7723;52.170;9.978;2023-04-03T04:25:21;5.57;;;1.77;;
15240;SDS011;7723;52.170;9.978;2023-04-03T04:27:48;2.70;;;1.43;;
15240;SDS011;7723;52.170;9.978;2023-04-03T04:30:15;6.13;;;1.90;;
15240;SDS011;7723;52.170;9.978;2023-04-03T04:32:42;2.53;;;1.10;;
15240;SDS011;7723;52.170;9.978;2023-04-03T04:35:09;2.30;;;1.13;;
15240;SDS011;7723;52.170;9.978;2023-04-03T04:37:36;3.07;;;1.23;;
15240;SDS011;7723;52.170;9.978;2023-04-03T04:40:04;5.57;;;1.60;;
15240;SDS011;7723;52.170;9.978;2023-04-03T04:42:33;1.60;;;1.00;;
15240;SDS011;7723;52.170;9.978;2023-04-03T04:45:00;1.97;;;0.90;;
15240;SDS011;7723;52.170;9.978;2023-04-03T04:47:28;2.47;;;1.30;;
15240;SDS011;7723;52.170;9.978;2023-04-03T04:49:55;7.40;;;1.60;;
15240;SDS011;7723;52.170;9.978;2023-04-03T04:52:22;6.23;;;1.23;;
15240;SDS011;7723;52.170;9.978;2023-04-03T04:54:50;3.77;;;1.30;;
15240;SDS011;7723;52.170;9.978;2023-04-03T04:57:17;4.03;;;1.40;;
15240;SDS011;7723;52.170;9.978;2023-04-03T04:59:45;5.20;;;1.30;;
15240;SDS011;7723;52.170;9.978;2023-04-03T05:02:12;4.17;;;1.70;;
15240;SDS011;7723;52.170;9.978;2023-04-03T05:04:40;3.17;;;1.60;;
15240;SDS011;7723;52.170;9.978;2023-04-03T05:07:07;3.97;;;1.67;;
15240;SDS011;7723;52.170;9.978;2023-04-03T05:09:34;4.37;;;1.23;;
15240;SDS011;7723;52.170;9.978;2023-04-03T05:12:03;6.30;;;1.33;;
15240;SDS011;7723;52.170;9.978;2023-04-03T05:14:30;2.33;;;1.07;;
15240;SDS011;7723;52.170;9.978;2023-04-03T05:16:58;5.07;;;1.40;;
15240;SDS011;7723;52.170;9.978;2023-04-03T05:19:25;3.83;;;1.40;;
15240;SDS011;7723;52.170;9.978;2023-04-03T05:21:53;3.87;;;1.10;;
15240;SDS011;7723;52.170;9.978;2023-04-03T05:24:20;3.93;;;1.47;;
15240;SDS011;7723;52.170;9.978;2023-04-03T05:26:47;6.17;;;1.40;;
15240;SDS011;7723;52.170;9.978;2023-04-03T05:29:14;2.50;;;1.20;;
15240;SDS011;7723;52.170;9.978;2023-04-03T05:31:41;3.00;;;1.10;;
15240;SDS011;7723;52.170;9.978;2023-04-03T05:34:10;2.87;;;1.20;;
15240;SDS011;7723;52.170;9.978;2023-04-03T05:36:37;3.80;;;1.20;;
15240;SDS011;7723;52.170;9.978;2023-04-03T05:39:04;5.00;;;1.70;;
15240;SDS011;7723;52.170;9.978;2023-04-03T05:41:31;4.63;;;1.50;;
15240;SDS011;7723;52.170;9.978;2023-04-03T05:43:58;4.83;;;1.80;;
15240;SDS011;7723;52.170;9.978;2023-04-03T05:46:25;3.33;;;1.60;;
15240;SDS011;7723;52.170;9.978;2023-04-03T05:48:52;3.87;;;1.40;;
15240;SDS011;7723;52.170;9.978;2023-04-03T05:51:23;3.37;;;1.30;;
15240;SDS011;7723;52.170;9.978;2023-04-03T05:53:52;5.30;;;1.50;;
15240;SDS011;7723;52.170;9.978;2023-04-03T05:56:25;2.80;;;1.33;;
15240;SDS011;7723;52.170;9.978;2023-04-03T05:58:52;5.60;;;1.80;;
15240;SDS011;7723;52.170;9.978;2023-04-03T06:01:20;7.50;;;2.73;;
15240;SDS011;7723;52.170;9.978;2023-04-03T06:03:47;5.00;;;1.70;;
15240;SDS011;7723;52.170;9.978;2023-04-03T06:06:14;4.53;;;1.73;;
15240;SDS011;7723;52.170;9.978;2023-04-03T06:08:43;4.70;;;1.63;;
15240;SDS011;7723;52.170;9.978;2023-04-03T06:11:11;5.93;;;2.23;;
15240;SDS011;7723;52.170;9.978;2023-04-03T06:13:38;1.90;;;1.50;;
15240;SDS011;7723;52.170;9.978;2023-04-03T06:16:05;2.77;;;1.47;;
15240;SDS011;7723;52.170;9.978;2023-04-03T06:18:34;4.63;;;1.70;;
15240;SDS011;7723;52.170;9.978;2023-04-03T06:21:01;4.97;;;1.60;;
15240;SDS011;7723;52.170;9.978;2023-04-03T06:23:29;5.53;;;1.10;;
15240;SDS011;7723;52.170;9.978;2023-04-03T06:25:59;2.42;;;1.35;;
15240;SDS011;7723;52.170;9.978;2023-04-03T06:28:26;2.30;;;1.20;;
15240;SDS011;7723;52.170;9.978;2023-04-03T06:30:53;4.35;;;1.10;;
15240;SDS011;7723;52.170;9.978;2023-04-03T06:33:20;1.92;;;1.08;;
15240;SDS011;7723;52.170;9.978;2023-04-03T06:35:47;1.80;;;1.00;;
15240;SDS011;7723;52.170;9.978;2023-04-03T06:38:14;5.07;;;1.20;;
15240;SDS011;7723;52.170;9.978;2023-04-03T06:40:44;4.00;;;1.10;;
15240;SDS011;7723;52.170;9.978;2023-04-03T06:43:12;2.58;;;1.40;;
15240;SDS011;7723;52.170;9.978;2023-04-03T06:45:39;2.28;;;1.17;;
15240;SDS011;7723;52.170;9.978;2023-04-03T06:48:06;2.50;;;1.08;;
15240;SDS011;7723;52.170;9.978;2023-04-03T06:50:34;2.67;;;1.60;;
15240;SDS011;7723;52.170;9.978;2023-04-03T06:53:01;1.48;;;1.10;;
15240;SDS011;7723;52.170;9.978;2023-04-03T06:55:28;1.75;;;0.93;;
15240;SDS011;7723;52.170;9.978;2023-04-03T06:57:56;3.30;;;1.13;;
15240;SDS011;7723;52.170;9.978;2023-04-03T07:00:25;3.10;;;1.02;;
15240;SDS011;7723;52.170;9.978;2023-04-03T07:02:52;2.33;;;1.20;;
15240;SDS011;7723;52.170;9.978;2023-04-03T07:05:21;2.35;;;1.10;;
15240;SDS011;7723;52.170;9.978;2023-04-03T07:07:48;2.28;;;1.23;;
15240;SDS011;7723;52.170;9.978;2023-04-03T07:10:16;3.83;;;1.60;;
15240;SDS011;7723;52.170;9.978;2023-04-03T07:12:43;3.78;;;1.20;;
15240;SDS011;7723;52.170;9.978;2023-04-03T07:15:11;1.80;;;1.08;;
15240;SDS011;7723;52.170;9.978;2023-04-03T07:17:40;3.13;;;1.17;;
15240;SDS011;7723;52.170;9.978;2023-04-03T07:20:08;2.75;;;1.20;;
15240;SDS011;7723;52.170;9.978;2023-04-03T07:22:35;3.78;;;1.30;;
15240;SDS011;7723;52.170;9.978;2023-04-03T07:25:03;3.13;;;1.05;;
15240;SDS011;7723;52.170;9.978;2023-04-03T07:27:32;2.78;;;1.30;;
15240;SDS011;7723;52.170;9.978;2023-04-03T07:30:00;2.72;;;1.33;;
15240;SDS011;7723;52.170;9.978;2023-04-03T07:32:27;4.20;;;1.38;;
15240;SDS011;7723;52.170;9.978;2023-04-03T07:34:56;2.15;;;1.13;;
15240;SDS011;7723;52.170;9.978;2023-04-03T07:37:23;3.85;;;1.45;;
15240;SDS011;7723;52.170;9.978;2023-04-03T07:39:51;4.53;;;1.13;;
15240;SDS011;7723;52.170;9.978;2023-04-03T07:42:20;2.30;;;1.20;;
15240;SDS011;7723;52.170;9.978;2023-04-03T07:44:47;2.58;;;1.17;;
15240;SDS011;7723;52.170;9.978;2023-04-03T07:47:14;2.83;;;1.02;;
15240;SDS011;7723;52.170;9.978;2023-04-03T07:49:42;2.80;;;1.00;;
15240;SDS011;7723;52.170;9.978;2023-04-03T07:52:10;2.75;;;1.25;;
15240;SDS011;7723;52.170;9.978;2023-04-03T07:54:38;2.53;;;0.90;;
15240;SDS011;7723;52.170;9.978;2023-04-03T07:57:05;1.48;;;0.80;;
15240;SDS011;7723;52.170;9.978;2023-04-03T07:59:33;3.03;;;1.38;;
15240;SDS011;7723;52.170;9.978;2023-04-03T08:02:00;1.75;;;1.13;;
15240;SDS011;7723;52.170;9.978;2023-04-03T08:04:29;2.95;;;1.10;;
15240;SDS011;7723;52.170;9.978;2023-04-03T08:06:57;2.30;;;1.05;;
15240;SDS011;7723;52.170;9.978;2023-04-03T08:09:25;3.30;;;1.40;;
15240;SDS011;7723;52.170;9.978;2023-04-03T08:11:52;4.38;;;1.25;;
15240;SDS011;7723;52.170;9.978;2023-04-03T08:14:19;4.00;;;1.25;;
15240;SDS011;7723;52.170;9.978;2023-04-03T08:16:47;1.77;;;1.10;;
15240;SDS011;7723;52.170;9.978;2023-04-03T08:19:15;10.13;;;1.40;;
15240;SDS011;7723;52.170;9.978;2023-04-03T08:21:43;1.77;;;1.13;;
15240;SDS011;7723;52.170;9.978;2023-04-03T08:24:10;3.40;;;1.15;;
15240;SDS011;7723;52.170;9.978;2023-04-03T08:26:39;4.55;;;1.20;;
15240;SDS011;7723;52.170;9.978;2023-04-03T08:29:06;2.33;;;1.30;;
15240;SDS011;7723;52.170;9.978;2023-04-03T08:31:33;2.17;;;1.17;;
15240;SDS011;7723;52.170;9.978;2023-04-03T08:34:00;4.03;;;1.10;;
15240;SDS011;7723;52.170;9.978;2023-04-03T08:36:27;2.47;;;1.10;;
15240;SDS011;7723;52.170;9.978;2023-04-03T08:38:55;3.10;;;1.30;;
15240;SDS011;7723;52.170;9.978;2023-04-03T08:41:26;2.72;;;1.30;;
15240;SDS011;7723;52.170;9.978;2023-04-03T08:44:00;1.15;;;0.82;;
15240;SDS011;7723;52.170;9.978;2023-04-03T08:46:40;2.53;;;1.15;;
15240;SDS011;7723;52.170;9.978;2023-04-03T08:49:18;3.80;;;1.30;;
15240;SDS011;7723;52.170;9.978;2023-04-03T08:51:52;4.72;;;1.00;;
15240;SDS011;7723;52.170;9.978;2023-04-03T08:54:23;1.83;;;0.82;;
15240;SDS011;7723;52.170;9.978;2023-04-03T08:56:53;3.30;;;1.45;;
15240;SDS011;7723;52.170;9.978;2023-04-03T08:59:26;2.55;;;1.00;;
15240;SDS011;7723;52.170;9.978;2023-04-03T09:01:56;2.80;;;1.08;;
15240;SDS011;7723;52.170;9.978;2023-04-03T09:04:30;2.85;;;0.93;;
15240;SDS011;7723;52.170;9.978;2023-04-03T09:07:02;1.58;;;0.88;;
15240;SDS011;7723;52.170;9.978;2023-04-03T09:09:36;4.00;;;1.15;;
15240;SDS011;7723;52.170;9.978;2023-04-03T09:12:09;5.22;;;0.98;;
15240;SDS011;7723;52.170;9.978;2023-04-03T09:14:44;2.97;;;0.85;;
15240;SDS011;7723;52.170;9.978;2023-04-03T09:17:22;2.28;;;1.00;;
15240;SDS011;7723;52.170;9.978;2023-04-03T09:20:01;3.72;;;0.85;;
15240;SDS011;7723;52.170;9.978;2023-04-03T09:22:34;3.38;;;1.05;;
15240;SDS011;7723;52.170;9.978;2023-04-03T09:25:06;2.75;;;0.88;;
15240;SDS011;7723;52.170;9.978;2023-04-03T09:27:38;1.88;;;0.60;;
15240;SDS011;7723;52.170;9.978;2023-04-03T09:30:11;3.22;;;0.88;;
15240;SDS011;7723;52.170;9.978;2023-04-03T09:32:41;1.00;;;0.80;;
15240;SDS011;7723;52.170;9.978;2023-04-03T09:35:16;4.30;;;0.90;;
15240;SDS011;7723;52.170;9.978;2023-04-03T09:37:48;2.45;;;0.55;;
15240;SDS011;7723;52.170;9.978;2023-04-03T09:40:28;3.95;;;0.75;;
15240;SDS011;7723;52.170;9.978;2023-04-03T09:42:59;1.67;;;0.90;;
15240;SDS011;7723;52.170;9.978;2023-04-03T09:45:30;1.50;;;0.82;;
15240;SDS011;7723;52.170;9.978;2023-04-03T09:48:05;1.45;;;0.80;;
15240;SDS011;7723;52.170;9.978;2023-04-03T09:50:34;2.42;;;0.80;;
15240;SDS011;7723;52.170;9.978;2023-04-03T09:53:05;2.42;;;0.88;;
15240;SDS011;7723;52.170;9.978;2023-04-03T09:55:49;1.52;;;0.98;;
15240;SDS011;7723;52.170;9.978;2023-04-03T09:58:24;0.77;;;0.57;;
15240;SDS011;7723;52.170;9.978;2023-04-03T10:00:58;0.98;;;0.63;;
15240;SDS011;7723;52.170;9.978;2023-04-03T10:03:28;1.30;;;0.68;;
15240;SDS011;7723;52.170;9.978;2023-04-03T10:05:57;6.15;;;1.02;;
15240;SDS011;7723;52.170;9.978;2023-04-03T10:08:25;1.98;;;0.70;;
15240;SDS011;7723;52.170;9.978;2023-04-03T10:11:05;1.60;;;0.57;;
15240;SDS011;7723;52.170;9.978;2023-04-03T10:13:35;1.17;;;0.60;;
15240;SDS011;7723;52.170;9.978;2023-04-03T10:16:06;1.40;;;0.60;;
15240;SDS011;7723;52.170;9.978;2023-04-03T10:18:37;1.75;;;0.50;;
15240;SDS011;7723;52.170;9.978;2023-04-03T10:21:10;6.75;;;1.10;;
15240;SDS011;7723;52.170;9.978;2023-04-03T10:23:42;2.90;;;0.65;;
15240;SDS011;7723;52.170;9.978;2023-04-03T10:26:15;1.75;;;0.60;;
15240;SDS011;7723;52.170;9.978;2023-04-03T10:28:52;0.65;;;0.47;;
15240;SDS011;7723;52.170;9.978;2023-04-03T10:31:25;1.65;;;0.50;;
15240;SDS011;7723;52.170;9.978;2023-04-03T10:33:59;0.75;;;0.50;;
15240;SDS011;7723;52.170;9.978;2023-04-03T10:36:34;2.72;;;0.77;;
15240;SDS011;7723;52.170;9.978;2023-04-03T10:39:11;0.60;;;0.60;;
15240;SDS011;7723;52.170;9.978;2023-04-03T10:41:55;1.40;;;0.57;;
15240;SDS011;7723;52.170;9.978;2023-04-03T10:44:31;2.20;;;0.52;;
15240;SDS011;7723;52.170;9.978;2023-04-03T10:47:07;1.08;;;0.50;;
15240;SDS011;7723;52.170;9.978;2023-04-03T10:49:41;1.23;;;0.70;;
15240;SDS011;7723;52.170;9.978;2023-04-03T10:52:17;1.38;;;0.43;;
15240;SDS011;7723;52.170;9.978;2023-04-03T10:54:49;1.88;;;0.90;;
15240;SDS011;7723;52.170;9.978;2023-04-03T10:57:27;2.25;;;0.60;;
15240;SDS011;7723;52.170;9.978;2023-04-03T10:59:56;2.80;;;0.82;;
15240;SDS011;7723;52.170;9.978;2023-04-03T11:02:29;1.10;;;0.60;;
15240;SDS011;7723;52.170;9.978;2023-04-03T11:04:59;1.75;;;0.60;;
15240;SDS011;7723;52.170;9.978;2023-04-03T11:07:32;1.13;;;0.65;;
15240;SDS011;7723;52.170;9.978;2023-04-03T11:10:08;2.78;;;0.70;;
15240;SDS011;7723;52.170;9.978;2023-04-03T11:12:40;2.42;;;0.68;;
15240;SDS011;7723;52.170;9.978;2023-04-03T11:15:11;2.40;;;0.50;;
15240;SDS011;7723;52.170;9.978;2023-04-03T11:17:43;1.05;;;0.60;;
15240;SDS011;7723;52.170;9.978;2023-04-03T11:20:16;3.13;;;1.02;;
15240;SDS011;7723;52.170;9.978;2023-04-03T11:22:47;1.52;;;0.63;;
15240;SDS011;7723;52.170;9.978;2023-04-03T11:25:19;3.15;;;0.60;;
15240;SDS011;7723;52.170;9.978;2023-04-03T11:27:49;1.38;;;0.60;;
15240;SDS011;7723;52.170;9.978;2023-04-03T11:30:25;1.30;;;0.68;;
15240;SDS011;7723;52.170;9.978;2023-04-03T11:33:02;1.80;;;0.70;;
15240;SDS011;7723;52.170;9.978;2023-04-03T11:35:42;0.98;;;0.60;;
15240;SDS011;7723;52.170;9.978;2023-04-03T11:38:14;0.70;;;0.50;;
15240;SDS011;7723;52.170;9.978;2023-04-03T11:40:48;1.33;;;0.60;;
15240;SDS011;7723;52.170;9.978;2023-04-03T11:43:23;1.58;;;0.60;;
15240;SDS011;7723;52.170;9.978;2023-04-03T11:45:56;2.10;;;0.68;;
15240;SDS011;7723;52.170;9.978;2023-04-03T11:48:44;2.92;;;0.90;;
15240;SDS011;7723;52.170;9.978;2023-04-03T12:00:49;0.90;;;0.43;;
15240;SDS011;7723;52.170;9.978;2023-04-03T12:06:42;2.03;;;0.60;;
15240;SDS011;7723;52.170;9.978;2023-04-03T12:09:23;0.82;;;0.52;;
15240;SDS011;7723;52.170;9.978;2023-04-03T12:11:52;3.08;;;0.80;;
15240;SDS011;7723;52.170;9.978;2023-04-03T12:14:22;1.50;;;0.50;;
15240;SDS011;7723;52.170;9.978;2023-04-03T12:16:52;2.63;;;0.55;;
15240;SDS011;7723;52.170;9.978;2023-04-03T12:19:34;0.93;;;0.70;;
15240;SDS011;7723;52.170;9.978;2023-04-03T12:22:07;1.55;;;0.60;;
15240;SDS011;7723;52.170;9.978;2023-04-03T12:24:40;1.05;;;0.52;;
15240;SDS011;7723;52.170;9.978;2023-04-03T12:27:13;4.95;;;1.83;;
15240;SDS011;7723;52.170;9.978;2023-04-03T12:29:50;2.00;;;0.80;;
15240;SDS011;7723;52.170;9.978;2023-04-03T12:32:24;0.95;;;0.65;;
15240;SDS011;7723;52.170;9.978;2023-04-03T12:35:07;2.95;;;1.58;;
15240;SDS011;7723;52.170;9.978;2023-04-03T12:37:54;2.03;;;0.70;;
15240;SDS011;7723;52.170;9.978;2023-04-03T12:40:42;2.42;;;0.70;;
15240;SDS011;7723;52.170;9.978;2023-04-03T12:43:20;4.38;;;0.88;;
15240;SDS011;7723;52.170;9.978;2023-04-03T12:45:58;2.22;;;0.70;;
15240;SDS011;7723;52.170;9.978;2023-04-03T12:48:30;1.55;;;0.80;;
15240;SDS011;7723;52.170;9.978;2023-04-03T12:51:04;2.00;;;0.60;;
15240;SDS011;7723;52.170;9.978;2023-04-03T12:53:33;1.30;;;0.63;;
15240;SDS011;7723;52.170;9.978;2023-04-03T12:58:47;0.95;;;0.60;;
15240;SDS011;7723;52.170;9.978;2023-04-03T13:01:16;1.35;;;0.55;;
15240;SDS011;7723;52.170;9.978;2023-04-03T13:03:47;0.98;;;0.70;;
15240;SDS011;7723;52.170;9.978;2023-04-03T13:06:19;1.10;;;0.68;;
15240;SDS011;7723;52.170;9.978;2023-04-03T13:08:48;3.90;;;0.82;;
15240;SDS011;7723;52.170;9.978;2023-04-03T13:11:16;2.13;;;0.73;;
15240;SDS011;7723;52.170;9.978;2023-04-03T13:13:56;2.55;;;1.08;;
15240;SDS011;7723;52.170;9.978;2023-04-03T13:16:24;1.73;;;0.80;;
15240;SDS011;7723;52.170;9.978;2023-04-03T13:18:51;1.27;;;0.70;;
15240;SDS011;7723;52.170;9.978;2023-04-03T13:21:22;1.20;;;0.70;;
15240;SDS011;7723;52.170;9.978;2023-04-03T13:23:53;1.58;;;0.60;;
15240;SDS011;7723;52.170;9.978;2023-04-03T13:26:23;2.03;;;0.63;;
15240;SDS011;7723;52.170;9.978;2023-04-03T13:28:53;2.67;;;0.95;;
15240;SDS011;7723;52.170;9.978;2023-04-03T13:31:25;1.10;;;0.90;;
15240;SDS011;7723;52.170;9.978;2023-04-03T13:33:56;3.30;;;1.05;;
15240;SDS011;7723;52.170;9.978;2023-04-03T13:36:27;0.75;;;0.40;;
15240;SDS011;7723;52.170;9.978;2023-04-03T13:38:57;1.00;;;0.50;;
15240;SDS011;7723;52.170;9.978;2023-04-03T13:41:28;1.58;;;0.63;;
15240;SDS011;7723;52.170;9.978;2023-04-03T13:46:57;1.13;;;0.70;;
15240;SDS011;7723;52.170;9.978;2023-04-03T13:49:30;1.38;;;0.50;;
15240;SDS011;7723;52.170;9.978;2023-04-03T13:52:03;1.02;;;0.47;;
15240;SDS011;7723;52.170;9.978;2023-04-03T13:54:47;2.38;;;0.65;;
15240;SDS011;7723;52.170;9.978;2023-04-03T13:57:21;1.35;;;0.57;;
15240;SDS011;7723;52.170;9.978;2023-04-03T13:59:48;2.25;;;0.60;;
15240;SDS011;7723;52.170;9.978;2023-04-03T14:02:17;3.35;;;0.90;;
15240;SDS011;7723;52.170;9.978;2023-04-03T14:04:49;2.42;;;0.60;;
15240;SDS011;7723;52.170;9.978;2023-04-03T14:07:22;1.67;;;0.63;;
15240;SDS011;7723;52.170;9.978;2023-04-03T14:09:50;1.67;;;0.75;;
15240;SDS011;7723;52.170;9.978;2023-04-03T14:12:19;2.17;;;0.63;;
15240;SDS011;7723;52.170;9.978;2023-04-03T14:14:51;2.25;;;1.10;;
15240;SDS011;7723;52.170;9.978;2023-04-03T14:17:20;1.25;;;0.60;;
15240;SDS011;7723;52.170;9.978;2023-04-03T14:19:50;1.98;;;0.75;;
15240;SDS011;7723;52.170;9.978;2023-04-03T14:22:18;1.65;;;0.68;;
15240;SDS011;7723;52.170;9.978;2023-04-03T14:24:49;2.65;;;0.90;;
15240;SDS011;7723;52.170;9.978;2023-04-03T14:27:18;1.65;;;0.90;;
15240;SDS011;7723;52.170;9.978;2023-04-03T14:29:47;1.30;;;0.70;;
15240;SDS011;7723;52.170;9.978;2023-04-03T14:32:16;0.57;;;0.38;;
15240;SDS011;7723;52.170;9.978;2023-04-03T14:34:44;2.90;;;1.00;;
15240;SDS011;7723;52.170;9.978;2023-04-03T14:37:12;1.95;;;0.80;;
15240;SDS011;7723;52.170;9.978;2023-04-03T14:39:41;2.28;;;0.75;;
15240;SDS011;7723;52.170;9.978;2023-04-03T14:42:14;1.98;;;0.80;;
15240;SDS011;7723;52.170;9.978;2023-04-03T14:44:42;1.70;;;0.55;;
15240;SDS011;7723;52.170;9.978;2023-04-03T14:47:10;1.58;;;0.80;;
15240;SDS011;7723;52.170;9.978;2023-04-03T14:49:39;1.80;;;0.60;;
15240;SDS011;7723;52.170;9.978;2023-04-03T14:52:09;2.92;;;0.73;;
15240;SDS011;7723;52.170;9.978;2023-04-03T14:54:45;1.40;;;0.73;;
15240;SDS011;7723;52.170;9.978;2023-04-03T14:57:14;1.30;;;0.68;;
15240;SDS011;7723;52.170;9.978;2023-04-03T14:59:42;1.58;;;0.60;;
15240;SDS011;7723;52.170;9.978;2023-04-03T15:02:18;2.10;;;0.77;;
15240;SDS011;7723;52.170;9.978;2023-04-03T15:04:52;2.10;;;0.60;;
15240;SDS011;7723;52.170;9.978;2023-04-03T15:07:19;2.33;;;0.70;;
15240;SDS011;7723;52.170;9.978;2023-04-03T15:09:47;2.03;;;0.80;;
15240;SDS011;7723;52.170;9.978;2023-04-03T15:12:16;1.10;;;0.68;;
15240;SDS011;7723;52.170;9.978;2023-04-03T15:14:43;3.47;;;0.85;;
15240;SDS011;7723;52.170;9.978;2023-04-03T15:17:11;2.53;;;0.75;;
15240;SDS011;7723;52.170;9.978;2023-04-03T15:19:42;1.52;;;0.70;;
15240;SDS011;7723;52.170;9.978;2023-04-03T15:22:12;2.13;;;0.80;;
15240;SDS011;7723;52.170;9.978;2023-04-03T15:24:40;2.45;;;0.80;;
15240;SDS011;7723;52.170;9.978;2023-04-03T15:27:07;2.08;;;0.75;;
15240;SDS011;7723;52.170;9.978;2023-04-03T15:29:39;3.13;;;0.77;;
15240;SDS011;7723;52.170;9.978;2023-04-03T15:32:08;2.75;;;1.38;;
15240;SDS011;7723;52.170;9.978;2023-04-03T15:34:36;3.20;;;0.90;;
15240;SDS011;7723;52.170;9.978;2023-04-03T15:37:03;0.80;;;0.60;;